createdAt,value
2018-01-26T00:00:03.074Z,42.71
2018-01-26T00:01:12.277Z,42.8
2018-01-26T00:02:21.519Z,42.8
2018-01-26T00:03:30.473Z,42.8
2018-01-26T00:04:39.447Z,42.61
2018-01-26T00:05:48.402Z,42.71
2018-01-26T00:06:57.352Z,42.61
2018-01-26T00:08:06.844Z,42.71
2018-01-26T00:09:16.058Z,42.71
2018-01-26T00:10:24.747Z,42.8
2018-01-26T00:11:33.426Z,42.8
2018-01-26T00:12:42.113Z,42.8
2018-01-26T00:13:50.821Z,42.61
2018-01-26T00:15:00.075Z,42.8
2018-01-26T00:16:09.573Z,42.8
2018-01-26T00:17:18.791Z,42.8
2018-01-26T00:18:27.473Z,42.71
2018-01-26T00:19:36.173Z,42.71
2018-01-26T00:20:44.855Z,42.8
2018-01-26T00:21:53.790Z,42.71
2018-01-26T00:23:02.743Z,42.8
2018-01-26T00:24:11.431Z,42.71
2018-01-26T00:25:20.364Z,42.71
2018-01-26T00:26:29.311Z,42.8
2018-01-26T00:27:38.257Z,42.71
2018-01-26T00:28:46.946Z,42.61
2018-01-26T00:29:56.157Z,42.71
2018-01-26T00:31:05.381Z,42.61
2018-01-26T00:32:14.328Z,42.61
2018-01-26T00:33:23.814Z,42.8
2018-01-26T00:34:32.757Z,42.61
2018-01-26T00:35:42.004Z,42.8
2018-01-26T00:36:51.500Z,42.61
2018-01-26T00:38:01.027Z,42.8
2018-01-26T00:39:10.004Z,42.61
2018-01-26T00:40:18.976Z,42.71
2018-01-26T00:41:28.197Z,42.71
2018-01-26T00:42:37.433Z,42.8
2018-01-26T00:43:46.628Z,42.61
2018-01-26T00:44:55.830Z,42.71
2018-01-26T00:46:04.778Z,42.8
2018-01-26T00:47:13.787Z,42.71
2018-01-26T00:48:22.454Z,42.71
2018-01-26T00:49:31.154Z,42.71
2018-01-26T00:50:40.157Z,42.52
2018-01-26T00:51:49.106Z,42.52
2018-01-26T00:52:57.839Z,42.52
2018-01-26T00:54:06.550Z,42.61
2018-01-26T00:55:15.492Z,42.8
2018-01-26T00:56:24.456Z,42.61
2018-01-26T00:57:33.676Z,42.71
2018-01-26T00:58:42.450Z,42.8
2018-01-26T00:59:51.150Z,42.61
2018-01-26T01:00:59.849Z,42.71
2018-01-26T01:02:09.078Z,42.61
2018-01-26T01:03:18.556Z,42.8
2018-01-26T01:04:27.799Z,42.61
2018-01-26T01:05:36.762Z,42.61
2018-01-26T01:06:45.973Z,42.71
2018-01-26T01:07:54.662Z,42.52
2018-01-26T01:09:03.906Z,42.42
2018-01-26T01:10:13.177Z,42.52
2018-01-26T01:11:22.162Z,42.52
2018-01-26T01:12:31.376Z,42.42
2018-01-26T01:13:40.848Z,42.52
2018-01-26T01:14:49.830Z,42.52
2018-01-26T01:15:58.511Z,42.52
2018-01-26T01:17:07.457Z,42.52
2018-01-26T01:18:16.404Z,42.52
2018-01-26T01:19:25.632Z,42.71
2018-01-26T01:20:34.598Z,42.8
2018-01-26T01:21:43.829Z,42.61
2018-01-26T01:22:52.604Z,42.52
2018-01-26T01:24:01.287Z,42.52
2018-01-26T01:25:10.228Z,42.52
2018-01-26T01:26:19.171Z,42.61
2018-01-26T01:27:28.383Z,42.52
2018-01-26T01:28:37.598Z,42.42
2018-01-26T01:29:46.816Z,42.52
2018-01-26T01:30:55.761Z,42.61
2018-01-26T01:32:04.995Z,42.52
2018-01-26T01:33:13.748Z,42.52
2018-01-26T01:34:22.410Z,42.42
2018-01-26T01:35:31.359Z,42.71
2018-01-26T01:36:40.841Z,42.52
2018-01-26T01:37:49.540Z,42.52
2018-01-26T01:38:58.215Z,42.71
2018-01-26T01:40:07.694Z,42.52
2018-01-26T01:41:16.641Z,42.61
2018-01-26T01:42:25.623Z,42.71
2018-01-26T01:43:34.578Z,42.8
2018-01-26T01:44:43.796Z,42.61
2018-01-26T01:45:53.257Z,42.52
2018-01-26T01:47:02.212Z,42.42
2018-01-26T01:48:11.424Z,42.8
2018-01-26T01:49:20.368Z,42.52
2018-01-26T01:50:29.320Z,42.71
2018-01-26T01:51:38.267Z,42.8
2018-01-26T01:52:46.970Z,42.61
2018-01-26T01:53:56.178Z,42.8
2018-01-26T01:55:04.883Z,42.61
2018-01-26T01:56:13.574Z,42.52
2018-01-26T01:57:22.258Z,42.52
2018-01-26T01:58:31.467Z,42.52
2018-01-26T01:59:40.144Z,42.71
2018-01-26T02:00:49.351Z,42.52
2018-01-26T02:01:58.551Z,42.61
2018-01-26T02:03:07.753Z,42.8
2018-01-26T02:04:16.435Z,42.8
2018-01-26T02:05:25.661Z,42.8
2018-01-26T02:06:34.618Z,42.8
2018-01-26T02:07:43.935Z,42.71
2018-01-26T02:08:52.870Z,42.61
2018-01-26T02:10:02.372Z,42.61
2018-01-26T02:11:11.572Z,42.8
2018-01-26T02:12:20.515Z,42.8
2018-01-26T02:13:29.208Z,42.71
2018-01-26T02:14:37.888Z,42.8
2018-01-26T02:15:46.840Z,42.61
2018-01-26T02:16:55.534Z,42.71
2018-01-26T02:18:04.794Z,42.71
2018-01-26T02:19:14.005Z,42.71
2018-01-26T02:20:22.935Z,42.52
2018-01-26T02:21:31.623Z,42.71
2018-01-26T02:22:40.303Z,42.71
2018-01-26T02:23:49.793Z,42.61
2018-01-26T02:24:58.749Z,42.61
2018-01-26T02:26:07.428Z,42.52
2018-01-26T02:27:16.355Z,42.61
2018-01-26T02:28:25.311Z,42.8
2018-01-26T02:29:34.250Z,42.71
2018-01-26T02:30:43.195Z,42.61
2018-01-26T02:31:52.418Z,42.61
2018-01-26T02:33:01.382Z,42.52
2018-01-26T02:34:10.094Z,42.52
2018-01-26T02:35:18.806Z,42.52
2018-01-26T02:36:27.762Z,42.42
2018-01-26T02:37:36.704Z,42.42
2018-01-26T02:38:46.170Z,42.52
2018-01-26T02:39:55.666Z,42.52
2018-01-26T02:41:04.887Z,42.71
2018-01-26T02:42:14.369Z,42.42
2018-01-26T02:43:23.308Z,42.52
2018-01-26T02:44:32.004Z,42.71
2018-01-26T02:45:41.740Z,42.42
2018-01-26T02:46:50.689Z,42.52
2018-01-26T02:48:00.442Z,42.71
2018-01-26T02:49:09.402Z,42.61
2018-01-26T02:50:18.890Z,42.61
2018-01-26T02:51:28.118Z,42.61
2018-01-26T02:52:37.318Z,42.61
2018-01-26T02:53:46.007Z,42.52
2018-01-26T02:54:55.212Z,42.61
2018-01-26T02:56:04.943Z,42.52
2018-01-26T02:57:14.710Z,42.52
2018-01-26T02:58:23.917Z,42.32
2018-01-26T02:59:33.376Z,42.61
2018-01-26T03:00:42.325Z,42.61
2018-01-26T03:01:52.242Z,42.61
2018-01-26T03:03:01.200Z,42.52
2018-01-26T03:04:10.668Z,42.52
2018-01-26T03:05:19.881Z,42.32
2018-01-26T03:06:28.840Z,42.52
2018-01-26T03:07:37.822Z,42.61
2018-01-26T03:08:46.768Z,42.23
2018-01-26T03:09:55.703Z,42.42
2018-01-26T03:11:05.187Z,42.13
2018-01-26T03:12:13.877Z,42.23
2018-01-26T03:13:23.096Z,42.42
2018-01-26T03:14:32.298Z,42.52
2018-01-26T03:15:41.491Z,42.13
2018-01-26T03:16:50.182Z,42.13
2018-01-26T03:17:59.180Z,42.23
2018-01-26T03:19:08.134Z,42.13
2018-01-26T03:20:17.336Z,42.52
2018-01-26T03:21:26.304Z,42.13
2018-01-26T03:22:35.500Z,42.32
2018-01-26T03:23:44.201Z,42.42
2018-01-26T03:24:53.137Z,42.23
2018-01-26T03:26:02.336Z,42.52
2018-01-26T03:27:11.297Z,42.32
2018-01-26T03:28:20.686Z,42.52
2018-01-26T03:29:29.634Z,42.32
2018-01-26T03:30:38.840Z,42.32
2018-01-26T03:31:48.097Z,42.32
2018-01-26T03:32:57.008Z,42.32
2018-01-26T03:34:05.951Z,42.32
2018-01-26T03:35:14.916Z,42.32
2018-01-26T03:36:23.873Z,42.32
2018-01-26T03:37:32.848Z,42.42
2018-01-26T03:38:41.810Z,42.32
2018-01-26T03:39:50.749Z,42.42
2018-01-26T03:40:59.955Z,42.42
2018-01-26T03:42:08.631Z,42.32
2018-01-26T03:43:17.843Z,42.32
2018-01-26T03:44:27.042Z,42.32
2018-01-26T03:45:35.726Z,42.42
2018-01-26T03:46:44.412Z,42.32
2018-01-26T03:47:53.603Z,42.52
2018-01-26T03:49:02.538Z,42.59
2018-01-26T03:50:11.742Z,42.03
2018-01-26T03:51:21.224Z,42.52
2018-01-26T03:52:29.923Z,42.03
2018-01-26T03:53:38.604Z,42.13
2018-01-26T03:54:47.546Z,42.42
2018-01-26T03:55:57.297Z,42.13
2018-01-26T03:57:06.524Z,42.52
2018-01-26T03:58:15.994Z,42.03
2018-01-26T03:59:25.464Z,42.32
2018-01-26T04:00:34.669Z,42.52
2018-01-26T04:01:43.868Z,42.3
2018-01-26T04:02:52.551Z,42.02
2018-01-26T04:04:02.014Z,42.32
2018-01-26T04:05:11.299Z,42.23
2018-01-26T04:06:21.301Z,42.42
2018-01-26T04:07:30.257Z,42.52
2018-01-26T04:08:38.963Z,42.42
2018-01-26T04:09:47.650Z,42.32
2018-01-26T04:10:56.336Z,42.52
2018-01-26T04:12:05.021Z,42.32
2018-01-26T04:13:14.230Z,42.42
2018-01-26T04:14:23.173Z,42.52
2018-01-26T04:15:32.404Z,42.52
2018-01-26T04:16:41.604Z,42.42
2018-01-26T04:17:50.547Z,42.52
2018-01-26T04:18:59.766Z,42.52
2018-01-26T04:20:08.732Z,42.52
2018-01-26T04:21:17.752Z,42.52
2018-01-26T04:22:26.691Z,42.61
2018-01-26T04:23:35.371Z,42.52
2018-01-26T04:24:44.081Z,42.49
2018-01-26T04:25:53.021Z,42.52
2018-01-26T04:27:01.968Z,42.52
2018-01-26T04:28:11.445Z,42.52
2018-01-26T04:29:20.131Z,42.52
2018-01-26T04:30:29.081Z,42.52
2018-01-26T04:31:38.024Z,42.52
2018-01-26T04:32:46.987Z,42.52
2018-01-26T04:33:56.211Z,42.52
2018-01-26T04:35:05.160Z,42.42
2018-01-26T04:36:14.368Z,42.52
2018-01-26T04:37:23.064Z,42.61
2018-01-26T04:38:32.258Z,42.52
2018-01-26T04:39:40.954Z,42.52
2018-01-26T04:40:49.982Z,42.52
2018-01-26T04:41:58.959Z,42.52
2018-01-26T04:43:08.166Z,42.52
2018-01-26T04:44:17.639Z,42.52
2018-01-26T04:45:26.882Z,42.42
2018-01-26T04:46:35.825Z,42.61
2018-01-26T04:47:44.786Z,42.42
2018-01-26T04:48:53.999Z,42.52
2018-01-26T04:50:02.946Z,42.52
2018-01-26T04:51:11.639Z,42.52
2018-01-26T04:52:20.576Z,42.42
2018-01-26T04:53:29.785Z,42.52
2018-01-26T04:54:38.724Z,42.61
2018-01-26T04:55:47.667Z,42.32
2018-01-26T04:56:56.627Z,42.61
2018-01-26T04:58:05.825Z,42.52
2018-01-26T04:59:15.035Z,42.32
2018-01-26T05:00:23.995Z,42.23
2018-01-26T05:01:33.467Z,42.23
2018-01-26T05:02:42.696Z,42.61
2018-01-26T05:03:52.160Z,42.61
2018-01-26T05:05:01.122Z,42.23
2018-01-26T05:06:10.581Z,42.32
2018-01-26T05:07:19.545Z,42.32
2018-01-26T05:08:28.508Z,42.23
2018-01-26T05:09:37.190Z,42.52
2018-01-26T05:10:45.882Z,42.23
2018-01-26T05:11:55.101Z,42.32
2018-01-26T05:13:04.073Z,42.32
2018-01-26T05:14:13.289Z,42.32
2018-01-26T05:15:22.490Z,42.32
2018-01-26T05:16:31.718Z,42.32
2018-01-26T05:17:40.912Z,42.32
2018-01-26T05:18:49.606Z,42.42
2018-01-26T05:19:58.380Z,42.32
2018-01-26T05:21:07.124Z,42.21
2018-01-26T05:22:16.027Z,42.21
2018-01-26T05:23:25.229Z,42.32
2018-01-26T05:24:34.184Z,42.42
2018-01-26T05:25:43.663Z,42.32
2018-01-26T05:26:52.378Z,42.3
2018-01-26T05:28:01.334Z,42.42
2018-01-26T05:29:10.305Z,42.32
2018-01-26T05:30:19.269Z,42.42
2018-01-26T05:31:28.479Z,42.4
2018-01-26T05:32:37.453Z,42.4
2018-01-26T05:33:46.665Z,42.42
2018-01-26T05:34:55.876Z,42.32
2018-01-26T05:36:04.839Z,42.13
2018-01-26T05:37:14.329Z,42.13
2018-01-26T05:38:23.021Z,42.32
2018-01-26T05:39:32.214Z,42.13
2018-01-26T05:40:40.924Z,42.13
2018-01-26T05:41:50.128Z,42.03
2018-01-26T05:42:59.361Z,41.65
2018-01-26T05:44:08.072Z,41.75
2018-01-26T05:45:17.016Z,41.65
2018-01-26T05:46:26.507Z,41.86
2018-01-26T05:47:35.483Z,41.57
2018-01-26T05:48:44.450Z,41.48
2018-01-26T05:49:53.672Z,41.19
2018-01-26T05:51:02.642Z,41.09
2018-01-26T05:52:11.336Z,41.09
2018-01-26T05:53:20.037Z,40.99
2018-01-26T05:54:28.718Z,40.99
2018-01-26T05:55:37.682Z,40.9
2018-01-26T05:56:46.382Z,40.72
2018-01-26T05:57:55.342Z,40.72
2018-01-26T05:59:04.816Z,40.63
2018-01-26T06:00:14.039Z,40.63
2018-01-26T06:01:22.724Z,40.44
2018-01-26T06:02:31.465Z,40.72
2018-01-26T06:03:40.146Z,40.44
2018-01-26T06:04:49.623Z,40.34
2018-01-26T06:05:58.312Z,40.34
2018-01-26T06:07:07.518Z,40.34
2018-01-26T06:08:16.475Z,40.63
2018-01-26T06:09:25.671Z,40.45
2018-01-26T06:10:34.865Z,40.07
2018-01-26T06:11:43.581Z,39.78
2018-01-26T06:12:52.524Z,39.97
2018-01-26T06:14:01.206Z,39.87
2018-01-26T06:15:10.436Z,39.78
2018-01-26T06:16:19.391Z,39.78
2018-01-26T06:17:28.424Z,39.69
2018-01-26T06:18:37.358Z,39.61
2018-01-26T06:19:46.325Z,39.51
2018-01-26T06:20:55.306Z,39.69
2018-01-26T06:22:04.279Z,39.61
2018-01-26T06:23:13.492Z,39.51
2018-01-26T06:24:22.190Z,39.61
2018-01-26T06:25:30.897Z,39.51
2018-01-26T06:26:39.851Z,39.61
2018-01-26T06:27:48.840Z,39.12
2018-01-26T06:28:57.800Z,39.03
2018-01-26T06:30:06.493Z,39.12
2018-01-26T06:31:15.454Z,38.93
2018-01-26T06:32:24.924Z,38.83
2018-01-26T06:33:34.160Z,39.03
2018-01-26T06:34:43.149Z,39.32
2018-01-26T06:35:52.620Z,39.03
2018-01-26T06:37:01.833Z,39.22
2018-01-26T06:38:11.044Z,39.03
2018-01-26T06:39:19.989Z,39.12
2018-01-26T06:40:28.678Z,39.41
2018-01-26T06:41:37.415Z,38.83
2018-01-26T06:42:46.627Z,39.12
2018-01-26T06:43:55.600Z,39.04
2018-01-26T06:45:04.541Z,39.14
2018-01-26T06:46:13.490Z,38.95
2018-01-26T06:47:22.455Z,38.85
2018-01-26T06:48:31.417Z,38.95
2018-01-26T06:49:40.388Z,39.32
2018-01-26T06:50:49.391Z,39.7
2018-01-26T06:51:58.340Z,39.53
2018-01-26T06:53:07.307Z,39.51
2018-01-26T06:54:16.561Z,39.51
2018-01-26T06:55:25.515Z,39.32
2018-01-26T06:56:34.462Z,39.61
2018-01-26T06:57:43.404Z,39.8
2018-01-26T06:58:52.654Z,39.9
2018-01-26T07:00:01.858Z,39.8
2018-01-26T07:01:11.066Z,39.99
2018-01-26T07:02:19.783Z,40.09
2018-01-26T07:03:28.745Z,39.9
2018-01-26T07:04:37.676Z,40.09
2018-01-26T07:05:46.379Z,40.67
2018-01-26T07:06:55.677Z,40.38
2018-01-26T07:08:04.625Z,40.38
2018-01-26T07:09:14.112Z,40.38
2018-01-26T07:10:23.315Z,40.28
2018-01-26T07:11:32.284Z,40.38
2018-01-26T07:12:41.515Z,40.45
2018-01-26T07:13:50.731Z,40.77
2018-01-26T07:14:59.677Z,40.47
2018-01-26T07:16:08.630Z,40.65
2018-01-26T07:17:17.574Z,40.65
2018-01-26T07:18:26.514Z,40.65
2018-01-26T07:19:35.712Z,40.65
2018-01-26T07:20:44.653Z,40.55
2018-01-26T07:22:06.111Z,40.75
2018-01-26T07:23:15.317Z,40.65
2018-01-26T07:24:24.281Z,40.75
2018-01-26T07:25:33.484Z,40.84
2018-01-26T07:26:42.440Z,41.03
2018-01-26T07:27:51.677Z,40.94
2018-01-26T07:29:00.390Z,41.03
2018-01-26T07:30:09.399Z,40.94
2018-01-26T07:31:18.608Z,40.84
2018-01-26T07:32:27.601Z,41.23
2018-01-26T07:33:37.093Z,41.23
2018-01-26T07:34:46.294Z,41.2
2018-01-26T07:35:55.029Z,41.23
2018-01-26T07:37:04.250Z,41.3
2018-01-26T07:38:13.196Z,41.52
2018-01-26T07:39:22.156Z,41.52
2018-01-26T07:40:31.633Z,41.3
2018-01-26T07:41:40.831Z,41.4
2018-01-26T07:42:50.059Z,41.98
2018-01-26T07:43:59.807Z,41.78
2018-01-26T07:45:08.517Z,41.69
2018-01-26T07:46:17.466Z,41.69
2018-01-26T07:47:26.676Z,41.69
2018-01-26T07:48:35.400Z,41.6
2018-01-26T07:49:44.372Z,41.98
2018-01-26T07:50:53.339Z,41.98
2018-01-26T07:52:02.027Z,41.98
2018-01-26T07:53:10.749Z,41.69
2018-01-26T07:54:19.432Z,41.78
2018-01-26T07:55:28.378Z,41.88
2018-01-26T07:56:38.369Z,41.78
2018-01-26T07:57:47.572Z,41.78
2018-01-26T07:58:56.805Z,41.88
2018-01-26T08:00:06.276Z,41.69
2018-01-26T08:01:15.511Z,41.78
2018-01-26T08:02:24.461Z,42.18
2018-01-26T08:03:33.680Z,41.98
2018-01-26T08:04:42.908Z,41.98
2018-01-26T08:05:51.871Z,41.98
2018-01-26T08:07:01.085Z,41.88
2018-01-26T08:08:10.057Z,41.98
2018-01-26T08:09:19.005Z,41.98
2018-01-26T08:10:28.237Z,41.88
2018-01-26T08:11:36.957Z,41.98
2018-01-26T08:12:46.433Z,41.78
2018-01-26T08:13:55.382Z,41.98
2018-01-26T08:15:04.148Z,41.88
2018-01-26T08:16:13.416Z,42.08
2018-01-26T08:17:22.369Z,42.18
2018-01-26T08:18:31.061Z,41.98
2018-01-26T08:19:39.747Z,41.86
2018-01-26T08:20:48.960Z,42.18
2018-01-26T08:21:58.162Z,42.18
2018-01-26T08:23:07.379Z,41.88
2018-01-26T08:24:16.073Z,41.88
2018-01-26T08:25:25.032Z,41.88
2018-01-26T08:26:33.984Z,42.36
2018-01-26T08:27:42.684Z,42.27
2018-01-26T08:28:51.392Z,41.98
2018-01-26T08:30:00.353Z,42.08
2018-01-26T08:31:09.587Z,41.98
2018-01-26T08:32:18.560Z,42.08
2018-01-26T08:33:27.769Z,41.98
2018-01-26T08:34:36.734Z,41.88
2018-01-26T08:35:45.946Z,41.98
2018-01-26T08:36:54.653Z,41.98
2018-01-26T08:38:04.144Z,41.69
2018-01-26T08:39:12.841Z,42.18
2018-01-26T08:40:21.542Z,41.78
2018-01-26T08:41:30.480Z,41.78
2018-01-26T08:42:39.175Z,41.6
2018-01-26T08:43:48.132Z,41.69
2018-01-26T08:44:56.823Z,41.69
2018-01-26T08:46:06.567Z,41.77
2018-01-26T08:47:15.542Z,41.77
2018-01-26T08:48:25.016Z,41.78
2018-01-26T08:49:33.974Z,41.98
2018-01-26T08:50:43.239Z,41.88
2018-01-26T08:51:52.975Z,41.78
2018-01-26T08:53:01.945Z,41.78
2018-01-26T08:54:10.914Z,41.69
2018-01-26T08:55:19.888Z,41.69
2018-01-26T08:56:28.874Z,41.69
2018-01-26T08:57:37.573Z,42.08
2018-01-26T08:58:46.578Z,41.98
2018-01-26T08:59:55.782Z,41.78
2018-01-26T09:01:05.536Z,41.69
2018-01-26T09:02:14.301Z,41.6
2018-01-26T09:03:23.293Z,41.6
2018-01-26T09:04:32.241Z,41.78
2018-01-26T09:05:41.456Z,41.69
2018-01-26T09:06:50.931Z,41.69
2018-01-26T09:08:00.142Z,41.69
2018-01-26T09:09:09.085Z,41.77
2018-01-26T09:10:17.854Z,41.69
2018-01-26T09:11:26.543Z,41.78
2018-01-26T09:12:35.230Z,41.78
2018-01-26T09:13:44.255Z,41.88
2018-01-26T09:14:53.206Z,41.98
2018-01-26T09:16:02.701Z,41.78
2018-01-26T09:17:11.434Z,41.78
2018-01-26T09:18:20.080Z,41.88
2018-01-26T09:19:29.577Z,41.78
2018-01-26T09:20:38.785Z,41.88
2018-01-26T09:21:47.737Z,42.08
2018-01-26T09:22:57.217Z,41.78
2018-01-26T09:24:05.969Z,41.98
2018-01-26T09:25:15.703Z,41.78
2018-01-26T09:26:24.404Z,42.08
2018-01-26T09:27:33.359Z,42.08
2018-01-26T09:28:42.334Z,41.98
2018-01-26T09:29:51.283Z,41.78
2018-01-26T09:31:00.217Z,41.98
2018-01-26T09:32:09.439Z,41.98
2018-01-26T09:33:18.651Z,41.6
2018-01-26T09:34:27.953Z,41.98
2018-01-26T09:35:37.170Z,41.78
2018-01-26T09:36:46.116Z,42.08
2018-01-26T09:37:55.342Z,41.6
2018-01-26T09:39:05.084Z,41.98
2018-01-26T09:40:14.561Z,41.69
2018-01-26T09:41:23.797Z,41.69
2018-01-26T09:42:33.266Z,41.69
2018-01-26T09:43:42.478Z,41.5
2018-01-26T09:44:51.960Z,41.5
2018-01-26T09:46:01.174Z,41.4
2018-01-26T09:47:09.882Z,41.6
2018-01-26T09:48:18.599Z,41.5
2018-01-26T09:49:27.805Z,41.4
2018-01-26T09:50:36.501Z,41.2
2018-01-26T09:51:45.723Z,41.3
2018-01-26T09:52:54.695Z,41.3
2018-01-26T09:54:03.914Z,41.5
2018-01-26T09:55:12.859Z,41.2
2018-01-26T09:56:22.076Z,41.2
2018-01-26T09:57:30.769Z,41.2
2018-01-26T09:58:39.988Z,41.3
2018-01-26T09:59:49.193Z,41.3
2018-01-26T10:00:57.894Z,41.2
2018-01-26T10:02:07.124Z,41.4
2018-01-26T10:03:16.340Z,41.4
2018-01-26T10:04:25.038Z,41.2
2018-01-26T10:05:34.255Z,41.4
2018-01-26T10:06:44.001Z,41.3
2018-01-26T10:07:52.688Z,41.3
2018-01-26T10:09:01.638Z,41.4
2018-01-26T10:10:10.353Z,41.3
2018-01-26T10:11:19.329Z,41.3
2018-01-26T10:12:28.288Z,41.2
2018-01-26T10:13:37.774Z,41.3
2018-01-26T10:14:46.736Z,41.3
2018-01-26T10:15:55.462Z,41.11
2018-01-26T10:17:04.425Z,41.11
2018-01-26T10:18:13.643Z,41.2
2018-01-26T10:19:22.878Z,41.2
2018-01-26T10:20:32.374Z,41.11
2018-01-26T10:21:41.327Z,41.2
2018-01-26T10:22:50.015Z,41.2
2018-01-26T10:23:59.270Z,41.11
2018-01-26T10:25:08.500Z,41.11
2018-01-26T10:26:17.454Z,41.02
2018-01-26T10:27:26.411Z,40.92
2018-01-26T10:28:35.638Z,40.92
2018-01-26T10:29:44.342Z,40.82
2018-01-26T10:30:53.288Z,41.02
2018-01-26T10:32:02.507Z,40.92
2018-01-26T10:33:11.200Z,40.92
2018-01-26T10:34:20.420Z,41.11
2018-01-26T10:35:29.390Z,40.92
2018-01-26T10:36:38.349Z,41.11
2018-01-26T10:37:47.049Z,41.02
2018-01-26T10:38:56.796Z,41.02
2018-01-26T10:40:05.764Z,41.02
2018-01-26T10:41:14.474Z,40.92
2018-01-26T10:42:23.162Z,40.92
2018-01-26T10:43:32.691Z,40.92
2018-01-26T10:44:42.170Z,40.82
2018-01-26T10:45:51.130Z,41.02
2018-01-26T10:47:00.090Z,41.02
2018-01-26T10:48:09.038Z,40.92
2018-01-26T10:49:18.263Z,40.92
2018-01-26T10:50:27.220Z,41.02
2018-01-26T10:51:36.685Z,40.92
2018-01-26T10:52:45.627Z,40.72
2018-01-26T10:53:54.849Z,40.92
2018-01-26T10:55:03.540Z,40.63
2018-01-26T10:56:12.755Z,40.72
2018-01-26T10:57:22.222Z,40.63
2018-01-26T10:58:31.438Z,40.72
2018-01-26T10:59:40.123Z,40.82
2018-01-26T11:00:49.073Z,40.82
2018-01-26T11:01:58.026Z,40.92
2018-01-26T11:03:06.990Z,40.63
2018-01-26T11:04:16.271Z,41.02
2018-01-26T11:05:25.741Z,41.02
2018-01-26T11:06:35.228Z,40.82
2018-01-26T11:07:43.918Z,40.92
2018-01-26T11:08:52.610Z,40.82
2018-01-26T11:10:01.550Z,40.72
2018-01-26T11:11:10.516Z,40.92
2018-01-26T11:12:19.470Z,41.02
2018-01-26T11:13:28.773Z,41.02
2018-01-26T11:14:37.473Z,40.92
2018-01-26T11:15:46.210Z,41.02
2018-01-26T11:16:55.439Z,40.92
2018-01-26T11:18:04.935Z,40.92
2018-01-26T11:19:14.179Z,40.92
2018-01-26T11:20:23.383Z,40.92
2018-01-26T11:21:32.406Z,40.82
2018-01-26T11:22:41.360Z,40.82
2018-01-26T11:23:50.057Z,41.02
2018-01-26T11:24:59.069Z,41.02
2018-01-26T11:26:07.774Z,41.02
2018-01-26T11:27:16.991Z,40.92
2018-01-26T11:28:26.478Z,40.92
2018-01-26T11:29:35.431Z,40.82
2018-01-26T11:30:44.399Z,40.72
2018-01-26T11:31:54.152Z,40.72
2018-01-26T11:33:03.381Z,40.72
2018-01-26T11:34:12.349Z,40.92
2018-01-26T11:35:21.311Z,40.82
2018-01-26T11:36:30.011Z,41.02
2018-01-26T11:37:39.508Z,40.82
2018-01-26T11:38:48.726Z,40.92
2018-01-26T11:39:57.952Z,40.72
2018-01-26T11:41:06.665Z,40.72
2018-01-26T11:42:15.379Z,40.72
2018-01-26T11:43:24.646Z,40.82
2018-01-26T11:44:33.869Z,40.72
2018-01-26T11:45:42.576Z,40.82
2018-01-26T11:46:52.060Z,40.72
2018-01-26T11:48:00.751Z,40.72
2018-01-26T11:49:09.702Z,40.82
2018-01-26T11:50:18.949Z,40.92
2018-01-26T11:51:28.437Z,40.72
2018-01-26T11:52:38.160Z,40.72
2018-01-26T11:53:47.369Z,40.72
2018-01-26T11:54:56.580Z,40.72
2018-01-26T11:56:05.828Z,40.63
2018-01-26T11:57:14.996Z,40.63
2018-01-26T11:58:23.688Z,40.63
2018-01-26T11:59:32.645Z,40.72
2018-01-26T12:00:41.595Z,40.82
2018-01-26T12:01:50.549Z,40.82
2018-01-26T12:02:59.760Z,40.72
2018-01-26T12:04:08.972Z,40.63
2018-01-26T12:05:18.706Z,40.63
2018-01-26T12:06:27.641Z,40.92
2018-01-26T12:07:36.872Z,40.82
2018-01-26T12:08:46.090Z,40.82
2018-01-26T12:09:55.042Z,40.92
2018-01-26T12:11:04.270Z,40.63
2018-01-26T12:12:13.208Z,40.72
2018-01-26T12:13:21.892Z,40.92
2018-01-26T12:14:30.838Z,40.72
2018-01-26T12:15:40.299Z,40.63
2018-01-26T12:16:48.991Z,40.53
2018-01-26T12:17:58.216Z,40.53
2018-01-26T12:19:06.905Z,40.82
2018-01-26T12:20:15.861Z,40.63
2018-01-26T12:21:25.071Z,40.63
2018-01-26T12:22:34.029Z,40.63
2018-01-26T12:23:43.248Z,40.72
2018-01-26T12:24:51.968Z,40.72
2018-01-26T12:26:00.906Z,40.72
2018-01-26T12:27:09.860Z,40.63
2018-01-26T12:28:18.819Z,40.63
2018-01-26T12:29:28.325Z,40.63
2018-01-26T12:30:37.531Z,40.63
2018-01-26T12:31:46.216Z,40.53
2018-01-26T12:32:55.181Z,40.53
2018-01-26T12:34:04.403Z,40.53
2018-01-26T12:35:13.610Z,40.53
2018-01-26T12:36:22.810Z,40.44
2018-01-26T12:37:32.014Z,40.72
2018-01-26T12:38:41.241Z,40.63
2018-01-26T12:39:50.456Z,40.53
2018-01-26T12:40:59.401Z,40.53
2018-01-26T12:42:08.371Z,40.53
2018-01-26T12:43:17.582Z,40.53
2018-01-26T12:44:26.532Z,40.53
2018-01-26T12:45:35.485Z,40.53
2018-01-26T12:46:44.704Z,40.53
2018-01-26T12:47:54.035Z,40.53
2018-01-26T12:49:02.990Z,40.53
2018-01-26T12:50:11.955Z,40.63
2018-01-26T12:51:20.654Z,40.53
2018-01-26T12:52:29.599Z,40.53
2018-01-26T12:53:38.549Z,40.53
2018-01-26T12:54:47.249Z,40.53
2018-01-26T12:55:55.927Z,40.53
2018-01-26T12:57:05.137Z,40.53
2018-01-26T12:58:14.082Z,40.63
2018-01-26T12:59:23.032Z,40.63
2018-01-26T13:00:31.739Z,40.53
2018-01-26T13:01:40.684Z,40.63
2018-01-26T13:02:49.902Z,40.63
2018-01-26T13:03:59.116Z,40.63
2018-01-26T13:05:07.835Z,40.72
2018-01-26T13:06:16.789Z,40.72
2018-01-26T13:07:25.473Z,40.53
2018-01-26T13:08:34.426Z,40.72
2018-01-26T13:09:43.387Z,40.63
2018-01-26T13:10:52.344Z,40.63
2018-01-26T13:12:01.327Z,40.63
2018-01-26T13:13:10.543Z,40.63
2018-01-26T13:14:19.536Z,40.72
2018-01-26T13:15:28.481Z,40.63
2018-01-26T13:16:37.952Z,40.72
2018-01-26T13:17:46.896Z,40.72
2018-01-26T13:18:55.870Z,40.72
2018-01-26T13:20:04.890Z,40.72
2018-01-26T13:21:13.858Z,40.63
2018-01-26T13:22:23.070Z,40.63
2018-01-26T13:23:31.778Z,40.53
2018-01-26T13:24:40.990Z,40.63
2018-01-26T13:25:49.937Z,40.53
2018-01-26T13:26:58.659Z,40.63
2018-01-26T13:28:07.612Z,40.44
2018-01-26T13:29:16.575Z,40.53
2018-01-26T13:30:25.256Z,40.82
2018-01-26T13:31:33.936Z,40.44
2018-01-26T13:32:42.649Z,40.53
2018-01-26T13:33:52.125Z,40.53
2018-01-26T13:35:01.609Z,40.53
2018-01-26T13:36:11.540Z,40.63
2018-01-26T13:37:20.236Z,40.53
2018-01-26T13:38:29.455Z,40.53
2018-01-26T13:39:38.666Z,40.53
2018-01-26T13:40:47.965Z,40.51
2018-01-26T13:41:57.174Z,40.53
2018-01-26T13:43:06.403Z,40.53
2018-01-26T13:44:15.613Z,40.51
2018-01-26T13:45:24.599Z,40.63
2018-01-26T13:46:33.563Z,40.53
2018-01-26T13:47:42.522Z,40.61
2018-01-26T13:48:51.476Z,40.51
2018-01-26T13:50:00.450Z,40.61
2018-01-26T13:51:09.928Z,40.51
2018-01-26T13:52:19.423Z,40.51
2018-01-26T13:53:28.640Z,40.7
2018-01-26T13:54:37.599Z,40.8
2018-01-26T13:55:46.355Z,40.8
2018-01-26T13:56:55.597Z,40.61
2018-01-26T13:58:05.077Z,40.61
2018-01-26T13:59:14.033Z,40.7
2018-01-26T14:00:23.857Z,40.8
2018-01-26T14:01:33.450Z,40.8
2018-01-26T14:02:42.931Z,40.61
2018-01-26T14:03:51.642Z,40.61
2018-01-26T14:05:00.851Z,40.8
2018-01-26T14:06:10.097Z,40.63
2018-01-26T14:07:18.798Z,40.61
2018-01-26T14:08:27.841Z,40.7
2018-01-26T14:09:36.799Z,40.61
2018-01-26T14:10:45.827Z,40.61
2018-01-26T14:11:55.036Z,40.61
2018-01-26T14:13:03.717Z,40.7
2018-01-26T14:14:12.676Z,40.61
2018-01-26T14:15:21.901Z,40.7
2018-01-26T14:16:30.601Z,40.61
2018-01-26T14:17:39.313Z,40.7
2018-01-26T14:18:48.273Z,40.61
2018-01-26T14:19:57.295Z,40.7
2018-01-26T14:21:06.537Z,40.61
2018-01-26T14:22:15.223Z,40.61
2018-01-26T14:23:24.271Z,40.7
2018-01-26T14:24:32.969Z,40.7
2018-01-26T14:25:41.938Z,40.51
2018-01-26T14:26:50.636Z,40.7
2018-01-26T14:27:59.610Z,40.61
2018-01-26T14:29:08.305Z,40.61
2018-01-26T14:30:17.037Z,40.61
2018-01-26T14:31:25.975Z,40.61
2018-01-26T14:32:34.951Z,40.61
2018-01-26T14:33:43.944Z,40.7
2018-01-26T14:34:52.891Z,40.61
2018-01-26T14:36:01.842Z,40.61
2018-01-26T14:37:10.803Z,40.61
2018-01-26T14:38:19.499Z,40.61
2018-01-26T14:39:28.716Z,40.61
2018-01-26T14:40:37.677Z,40.61
2018-01-26T14:41:46.378Z,40.61
2018-01-26T14:42:55.327Z,40.61
2018-01-26T14:44:04.011Z,40.61
2018-01-26T14:45:12.705Z,40.61
2018-01-26T14:46:21.408Z,40.61
2018-01-26T14:47:30.366Z,40.61
2018-01-26T14:48:39.581Z,40.61
2018-01-26T14:49:48.352Z,40.61
2018-01-26T14:50:57.064Z,40.61
2018-01-26T14:52:05.764Z,40.7